createdAt,value
2023-03-14T00:00:46.446Z,96692.43
2023-03-14T00:03:24.287Z,96697.80
2023-03-14T00:05:54.451Z,96700.04
2023-03-14T00:08:25.742Z,96699.27
2023-03-14T00:10:56.351Z,96698.42
2023-03-14T00:13:26.745Z,96697.39
2023-03-14T00:15:56.957Z,96697.44
2023-03-14T00:18:27.109Z,96696.36
2023-03-14T00:21:01.133Z,96700.64
2023-03-14T00:23:32.777Z,96701.89
2023-03-14T00:26:04.709Z,96701.02
2023-03-14T00:28:35.159Z,96704.69
2023-03-14T00:31:07.124Z,96704.31
2023-03-14T00:33:37.242Z,96708.43
2023-03-14T00:36:11.180Z,96702.62
2023-03-14T00:38:42.479Z,96703.70
2023-03-14T00:41:14.334Z,96708.59
2023-03-14T00:43:44.716Z,96714.27
2023-03-14T00:46:15.430Z,96717.78
2023-03-14T00:48:46.945Z,96719.23
2023-03-14T00:51:17.504Z,96722.27
2023-03-14T00:53:48.919Z,96727.80
2023-03-14T00:56:19.228Z,96729.29
2023-03-14T00:58:49.388Z,96728.25
2023-03-14T01:01:20.901Z,96730.40
2023-03-14T01:03:53.858Z,96735.77
2023-03-14T01:06:25.997Z,96743.21
2023-03-14T01:08:57.145Z,96750.73
2023-03-14T01:11:29.440Z,96758.70
2023-03-14T01:13:59.570Z,96768.85
2023-03-14T01:16:31.112Z,96770.96
2023-03-14T01:19:01.376Z,96777.58
2023-03-14T01:21:33.424Z,96776.32
2023-03-14T01:24:05.441Z,96773.11
2023-03-14T01:26:36.486Z,96770.57
2023-03-14T01:29:07.662Z,96766.93
2023-03-14T01:31:38.224Z,96768.74
2023-03-14T01:34:08.993Z,96765.73
2023-03-14T01:36:39.458Z,96769.71
2023-03-14T01:39:10.609Z,96774.95
2023-03-14T01:41:41.332Z,96778.16
2023-03-14T01:44:14.173Z,96781.53
2023-03-14T01:46:45.204Z,96782.45
2023-03-14T01:49:24.593Z,96785.45
2023-03-14T01:51:57.550Z,96794.98
2023-03-14T01:54:30.556Z,96796.80
2023-03-14T01:57:07.181Z,96798.75
2023-03-14T01:59:38.128Z,96800.35
2023-03-14T02:02:09.721Z,96799.48
2023-03-14T02:04:41.293Z,96796.72
2023-03-14T02:07:16.783Z,96799.19
2023-03-14T02:09:47.466Z,96803.80
2023-03-14T02:12:18.699Z,96807.94
2023-03-14T02:14:49.954Z,96811.09
2023-03-14T02:17:20.822Z,96808.71
2023-03-14T02:20:00.040Z,96813.84
2023-03-14T02:22:30.353Z,96811.42
2023-03-14T02:25:08.542Z,96811.97
2023-03-14T02:27:38.879Z,96813.70
2023-03-14T02:30:13.068Z,96810.64
2023-03-14T02:32:46.851Z,96810.34
2023-03-14T02:35:19.913Z,96815.14
2023-03-14T02:37:53.670Z,96813.54
2023-03-14T02:40:23.818Z,96812.03
2023-03-14T02:42:54.014Z,96822.34
2023-03-14T02:45:39.895Z,96827.08
2023-03-14T02:48:13.708Z,96835.77
2023-03-14T02:50:44.811Z,96840.59
2023-03-14T02:53:18.492Z,96844.98
2023-03-14T02:55:50.194Z,96851.78
2023-03-14T02:58:21.692Z,96845.48
2023-03-14T03:00:51.952Z,96846.41
2023-03-14T03:03:22.334Z,96852.55
2023-03-14T03:05:52.899Z,96857.14
2023-03-14T03:08:25.417Z,96855.70
2023-03-14T03:10:56.130Z,96854.13
2023-03-14T03:13:27.750Z,96855.61
2023-03-14T03:15:59.247Z,96859.32
2023-03-14T03:18:29.767Z,96857.48
2023-03-14T03:21:03.758Z,96859.97
2023-03-14T03:23:34.278Z,96865.36
2023-03-14T03:26:04.839Z,96870.94
2023-03-14T03:28:35.402Z,96877.39
2023-03-14T03:31:10.875Z,96890.00
2023-03-14T03:33:41.271Z,96890.27
2023-03-14T03:36:13.939Z,96902.77
2023-03-14T03:38:44.209Z,96906.30
2023-03-14T03:41:14.485Z,96910.23
2023-03-14T03:43:44.848Z,96915.02
2023-03-14T03:46:15.459Z,96910.05
2023-03-14T03:48:45.849Z,96909.73
2023-03-14T03:51:16.920Z,96912.11
2023-03-14T03:53:47.072Z,96910.80
2023-03-14T03:56:17.295Z,96916.77
2023-03-14T03:58:47.531Z,96922.17
2023-03-14T04:01:17.786Z,96925.14
2023-03-14T04:03:48.337Z,96926.11
2023-03-14T04:06:19.393Z,96930.71
2023-03-14T04:08:49.898Z,96936.83
2023-03-14T04:11:20.177Z,96945.52
2023-03-14T04:13:51.173Z,96948.16
2023-03-14T04:16:23.791Z,96945.23
2023-03-14T04:18:54.775Z,96948.59
2023-03-14T04:21:25.580Z,96948.89
2023-03-14T04:23:56.118Z,96952.48
2023-03-14T04:26:26.937Z,96957.04
2023-03-14T04:28:56.995Z,96962.81
2023-03-14T04:31:27.275Z,96960.10
2023-03-14T04:33:57.381Z,96964.38
2023-03-14T04:36:27.804Z,96961.29
2023-03-14T04:38:57.894Z,96963.07
2023-03-14T04:41:29.246Z,96963.45
2023-03-14T04:44:00.370Z,96965.79
2023-03-14T04:46:30.937Z,96965.77
2023-03-14T04:49:01.035Z,96970.80
2023-03-14T04:51:31.345Z,96973.02
2023-03-14T04:54:01.517Z,96976.27
2023-03-14T04:56:31.795Z,96984.12
2023-03-14T04:59:02.419Z,96991.47
2023-03-14T05:01:32.709Z,96996.15
2023-03-14T05:04:03.313Z,97000.48
2023-03-14T05:06:33.856Z,97002.14
2023-03-14T05:09:05.714Z,97004.20
2023-03-14T05:11:35.915Z,97005.88
2023-03-14T05:14:06.208Z,97007.09
2023-03-14T05:16:36.761Z,97010.52
2023-03-14T05:19:08.157Z,97016.66
2023-03-14T05:21:38.616Z,97023.20
2023-03-14T05:24:09.206Z,97018.95
2023-03-14T05:26:39.855Z,97018.39
2023-03-14T05:29:10.059Z,97025.83
2023-03-14T05:31:40.568Z,97031.64
2023-03-14T05:34:11.019Z,97036.38
2023-03-14T05:36:41.972Z,97032.34
2023-03-14T05:39:12.293Z,97037.39
2023-03-14T05:41:42.603Z,97045.63
2023-03-14T05:44:12.707Z,97050.59
2023-03-14T05:46:43.236Z,97056.95
2023-03-14T05:49:13.982Z,97051.02
2023-03-14T05:51:44.613Z,97055.04
2023-03-14T05:54:15.477Z,97054.83
2023-03-14T05:56:45.705Z,97052.71
2023-03-14T05:59:15.950Z,97061.31
2023-03-14T06:01:46.310Z,97061.02
2023-03-14T06:04:16.549Z,97062.86
2023-03-14T06:06:46.780Z,97067.30
2023-03-14T06:09:16.964Z,97059.54
2023-03-14T06:11:48.128Z,97061.52
2023-03-14T06:14:18.480Z,97059.05
2023-03-14T06:16:49.767Z,97068.10
2023-03-14T06:19:20.661Z,97065.78
2023-03-14T06:21:50.902Z,97070.02
2023-03-14T06:24:21.483Z,97071.14
2023-03-14T06:26:52.155Z,97070.64
2023-03-14T06:29:23.503Z,97075.73
2023-03-14T06:31:53.851Z,97074.26
2023-03-14T06:34:24.245Z,97078.89
2023-03-14T06:36:54.881Z,97080.41
2023-03-14T06:39:25.182Z,97078.33
2023-03-14T06:41:55.364Z,97084.04
2023-03-14T06:44:25.835Z,97083.55
2023-03-14T06:46:56.608Z,97082.41
2023-03-14T06:49:27.462Z,97085.34
2023-03-14T06:51:57.835Z,97090.55
2023-03-14T06:54:28.214Z,97095.30
2023-03-14T06:56:58.610Z,97093.02
2023-03-14T06:59:28.961Z,97091.53
2023-03-14T07:01:59.576Z,97092.27
2023-03-14T07:04:29.780Z,97098.15
2023-03-14T07:06:59.844Z,97105.79
2023-03-14T07:09:30.144Z,97106.27
2023-03-14T07:12:00.771Z,97105.12
2023-03-14T07:14:31.264Z,97108.90
2023-03-14T07:17:01.621Z,97107.47
2023-03-14T07:19:31.985Z,97112.83
2023-03-14T07:22:02.244Z,97112.08
2023-03-14T07:24:32.757Z,97114.30
2023-03-14T07:27:03.047Z,97111.58
2023-03-14T07:29:33.312Z,97113.45
2023-03-14T07:32:03.915Z,97111.13
2023-03-14T07:34:34.267Z,97108.22
2023-03-14T07:37:05.709Z,97107.77
2023-03-14T07:39:36.018Z,97105.67
2023-03-14T07:42:06.261Z,97103.39
2023-03-14T07:44:36.645Z,97106.25
2023-03-14T07:47:06.914Z,97108.00
2023-03-14T07:49:37.458Z,97112.04
2023-03-14T07:52:07.887Z,97113.40
2023-03-14T07:54:38.128Z,97113.41
2023-03-14T07:57:08.411Z,97112.27
2023-03-14T07:59:38.895Z,97103.18
2023-03-14T08:02:12.585Z,97107.17
2023-03-14T08:04:43.378Z,97106.90
2023-03-14T08:07:13.647Z,97108.63
2023-03-14T08:09:43.959Z,97104.37
2023-03-14T08:12:14.506Z,97111.02
2023-03-14T08:14:44.743Z,97119.02
2023-03-14T08:17:15.292Z,97118.06
2023-03-14T08:19:45.585Z,97121.56
2023-03-14T08:22:17.782Z,97113.09
2023-03-14T08:24:49.558Z,97115.94
2023-03-14T08:27:19.897Z,97112.48
2023-03-14T08:29:49.999Z,97117.23
2023-03-14T08:32:20.863Z,97108.15
2023-03-14T08:34:51.370Z,97109.70
2023-03-14T08:37:26.598Z,97111.09
2023-03-14T08:39:57.773Z,97105.33
2023-03-14T08:42:28.254Z,97104.94
2023-03-14T08:44:58.814Z,97110.13
2023-03-14T08:47:29.116Z,97107.96
2023-03-14T08:49:59.341Z,97103.09
2023-03-14T08:52:31.851Z,97104.45
2023-03-14T08:55:02.491Z,97106.41
2023-03-14T08:57:33.289Z,97111.05
2023-03-14T09:00:06.146Z,97113.20
2023-03-14T09:02:36.366Z,97116.50
2023-03-14T09:05:08.056Z,97123.23
2023-03-14T09:07:38.391Z,97121.42
2023-03-14T09:10:11.269Z,97122.19
2023-03-14T09:12:41.673Z,97123.83
2023-03-14T09:15:13.142Z,97129.80
2023-03-14T09:17:45.372Z,97124.60
2023-03-14T09:20:16.112Z,97127.16
2023-03-14T09:22:46.430Z,97119.30
2023-03-14T09:25:17.045Z,97116.30
2023-03-14T09:27:47.346Z,97109.34
2023-03-14T09:30:18.216Z,97105.66
2023-03-14T09:32:48.351Z,97101.00
2023-03-14T09:35:19.483Z,97099.75
2023-03-14T09:37:50.770Z,97097.23
2023-03-14T09:40:22.347Z,97097.77
2023-03-14T09:42:55.047Z,97091.02
2023-03-14T09:45:30.349Z,97093.49
2023-03-14T09:48:01.278Z,97098.11
2023-03-14T09:50:34.741Z,97102.75
2023-03-14T09:53:08.600Z,97095.13
2023-03-14T09:55:39.530Z,97094.45
2023-03-14T09:58:13.204Z,97086.75
2023-03-14T10:00:44.050Z,97081.20
2023-03-14T10:03:34.479Z,97077.05
2023-03-14T10:06:05.314Z,97073.83
2023-03-14T10:08:35.619Z,97079.20
2023-03-14T10:11:06.602Z,97074.52
2023-03-14T10:13:37.535Z,97072.88
2023-03-14T10:16:09.453Z,97072.42
2023-03-14T10:18:39.897Z,97069.16
2023-03-14T10:21:22.721Z,97067.16
2023-03-14T10:23:53.200Z,97060.01
2023-03-14T10:26:28.451Z,97063.69
2023-03-14T10:29:05.219Z,97060.94
2023-03-14T10:34:24.764Z,97055.84
2023-03-14T10:37:00.089Z,97053.45
2023-03-14T10:39:43.112Z,97046.55
2023-03-14T10:42:21.304Z,97046.50
2023-03-14T10:44:57.072Z,97042.27
2023-03-14T10:47:29.594Z,97042.64
2023-03-14T10:50:00.454Z,97032.38
2023-03-14T10:53:01.485Z,97032.88
2023-03-14T10:55:22.707Z,97030.48
2023-03-14T10:57:53.128Z,97027.56
2023-03-14T11:00:25.321Z,97022.83
2023-03-14T11:03:08.134Z,97026.63
2023-03-14T11:05:43.655Z,97033.06
2023-03-14T11:08:19.673Z,97031.89
2023-03-14T11:10:52.359Z,97033.23
2023-03-14T11:13:27.698Z,97031.81
2023-03-14T11:16:06.299Z,97025.66
2023-03-14T11:19:00.907Z,97032.48
2023-03-14T11:21:34.815Z,97038.77
2023-03-14T11:24:15.946Z,97032.95
2023-03-14T11:26:50.309Z,97032.38
2023-03-14T11:29:24.104Z,97033.31
2023-03-14T11:31:57.600Z,97035.06
2023-03-14T11:34:34.104Z,97032.15
2023-03-14T11:37:08.450Z,97034.23
2023-03-14T11:39:42.768Z,97035.39
2023-03-14T11:42:15.683Z,97032.48
2023-03-14T11:44:51.803Z,97026.35
2023-03-14T11:47:25.942Z,97028.39
2023-03-14T11:50:00.859Z,97027.24
2023-03-14T11:52:33.935Z,97031.35
2023-03-14T11:55:12.909Z,97032.94
2023-03-14T11:57:46.254Z,97030.14
2023-03-14T12:00:23.744Z,97029.58
2023-03-14T12:03:01.365Z,97024.96
2023-03-14T12:05:50.000Z,97022.73
2023-03-14T12:08:47.944Z,97019.91
2023-03-14T12:11:32.243Z,97023.39
2023-03-14T12:14:03.289Z,97023.55
2023-03-14T12:16:41.108Z,97022.98
2023-03-14T12:19:33.836Z,97019.98
2023-03-14T12:22:27.951Z,97020.15
2023-03-14T12:25:02.649Z,97016.83
2023-03-14T12:27:50.902Z,97011.42
2023-03-14T12:30:29.426Z,97011.93
2023-03-14T12:33:23.692Z,97016.69
2023-03-14T12:35:58.695Z,97018.21
2023-03-14T12:38:39.018Z,97018.34
2023-03-14T12:41:16.860Z,97012.73
2023-03-14T12:43:47.141Z,97013.48
2023-03-14T12:46:26.794Z,97012.02
2023-03-14T12:49:08.136Z,97018.41
2023-03-14T12:51:39.765Z,97019.64
2023-03-14T12:54:33.412Z,97015.81
2023-03-14T12:57:13.038Z,97011.16
2023-03-14T12:59:48.745Z,97007.90
2023-03-14T13:02:25.908Z,97007.06
2023-03-14T13:05:04.617Z,97008.14
2023-03-14T13:07:56.267Z,97008.39
2023-03-14T13:10:27.145Z,97007.19
2023-03-14T13:12:59.319Z,97007.36
2023-03-14T13:15:34.911Z,97007.46
2023-03-14T13:18:10.740Z,97005.95
2023-03-14T13:20:45.658Z,97001.19
2023-03-14T13:23:26.376Z,96997.41
2023-03-14T13:25:57.025Z,96996.45
2023-03-14T13:28:27.269Z,96996.35
2023-03-14T13:31:00.795Z,96994.77
2023-03-14T13:33:32.201Z,96993.35
2023-03-14T13:36:04.838Z,96993.29
2023-03-14T13:38:37.177Z,96996.91
2023-03-14T13:41:08.912Z,96999.41
2023-03-14T13:43:42.002Z,97001.96
2023-03-14T13:46:16.963Z,97004.60
2023-03-14T13:48:49.358Z,97003.02
2023-03-14T13:51:21.590Z,96997.32
2023-03-14T13:53:52.977Z,96993.44
2023-03-14T13:56:25.154Z,96991.30
2023-03-14T13:58:55.431Z,96991.55
2023-03-14T14:01:27.935Z,96991.52
2023-03-14T14:03:59.717Z,96997.34
2023-03-14T14:06:33.334Z,96998.43
2023-03-14T14:09:11.136Z,97003.70
2023-03-14T14:11:56.498Z,97005.16
2023-03-14T14:14:38.861Z,97010.48
2023-03-14T14:17:13.118Z,97017.01
2023-03-14T14:19:44.091Z,97017.41
2023-03-14T14:22:14.936Z,97024.77
2023-03-14T14:24:45.236Z,97027.77
2023-03-14T14:27:17.618Z,97035.52
2023-03-14T14:30:00.537Z,97039.08
2023-03-14T14:32:37.417Z,97038.80
2023-03-14T14:35:09.182Z,97041.59
2023-03-14T14:37:44.969Z,97038.23
2023-03-14T14:40:20.992Z,97044.39
2023-03-14T14:42:55.183Z,97044.09
2023-03-14T14:45:26.890Z,97046.15
2023-03-14T14:47:58.914Z,97050.58
2023-03-14T14:50:34.361Z,97055.65
2023-03-14T14:53:22.042Z,97058.00
2023-03-14T14:55:54.405Z,97058.61
2023-03-14T14:58:28.549Z,97059.19
2023-03-14T15:01:06.493Z,97060.65
2023-03-14T15:03:37.464Z,97063.88
2023-03-14T15:06:09.742Z,97067.27
2023-03-14T15:08:40.351Z,97070.21
2023-03-14T15:11:19.063Z,97070.04
2023-03-14T15:13:49.991Z,97075.08
2023-03-14T15:16:23.652Z,97073.43
2023-03-14T15:18:57.199Z,97078.01
2023-03-14T15:21:29.134Z,97078.30
2023-03-14T15:24:01.194Z,97084.94
2023-03-14T15:26:33.673Z,97085.31
2023-03-14T15:29:08.821Z,97091.23
2023-03-14T15:31:39.438Z,97089.46
2023-03-14T15:34:11.122Z,97091.73
2023-03-14T15:36:41.625Z,97094.11
2023-03-14T15:39:13.725Z,97099.89
2023-03-14T15:41:44.375Z,97097.59
2023-03-14T15:44:18.386Z,97107.41
2023-03-14T15:46:51.120Z,97109.02
2023-03-14T15:49:21.466Z,97115.13
2023-03-14T15:51:52.296Z,97120.95
2023-03-14T15:54:28.937Z,97124.64
2023-03-14T15:57:00.423Z,97125.70
2023-03-14T15:59:31.183Z,97128.73
2023-03-14T16:02:02.946Z,97127.86
2023-03-14T16:04:34.716Z,97132.73
2023-03-14T16:07:05.486Z,97137.38
2023-03-14T16:09:35.920Z,97144.05
2023-03-14T16:12:08.180Z,97146.45
2023-03-14T16:14:45.887Z,97148.12
2023-03-14T16:17:16.670Z,97147.83
2023-03-14T16:19:49.040Z,97147.75
2023-03-14T16:22:20.250Z,97150.77
2023-03-14T16:24:50.902Z,97152.44
2023-03-14T16:27:21.515Z,97153.52
2023-03-14T16:29:52.834Z,97155.46
2023-03-14T16:32:23.127Z,97155.08
2023-03-14T16:34:54.047Z,97158.29
2023-03-14T16:37:27.238Z,97163.01
2023-03-14T16:40:11.693Z,97158.33
2023-03-14T16:43:05.292Z,97162.67
2023-03-14T16:45:34.698Z,97163.16
2023-03-14T16:48:06.055Z,97165.70
2023-03-14T16:50:36.929Z,97160.98
2023-03-14T16:53:10.839Z,97163.60
2023-03-14T16:55:43.976Z,97168.70
2023-03-14T16:58:14.273Z,97170.85
2023-03-14T17:00:46.342Z,97173.94
2023-03-14T17:03:17.274Z,97178.66
2023-03-14T17:05:48.870Z,97178.85
2023-03-14T17:08:21.233Z,97186.36
2023-03-14T17:10:53.989Z,97191.14
2023-03-14T17:13:25.833Z,97195.02
2023-03-14T17:15:57.885Z,97197.25
2023-03-14T17:18:29.469Z,97198.16
2023-03-14T17:21:00.543Z,97199.23
2023-03-14T17:23:32.716Z,97198.08
2023-03-14T17:26:03.185Z,97202.23
2023-03-14T17:28:33.650Z,97206.48
2023-03-14T17:31:08.774Z,97206.97
2023-03-14T17:33:39.125Z,97209.95
2023-03-14T17:36:11.057Z,97211.20
2023-03-14T17:38:41.414Z,97212.62
2023-03-14T17:41:12.941Z,97213.82
2023-03-14T17:43:43.630Z,97213.91
2023-03-14T17:46:16.625Z,97211.32
2023-03-14T17:48:48.252Z,97214.86
2023-03-14T17:51:18.845Z,97216.84
2023-03-14T17:53:49.613Z,97214.08
2023-03-14T17:56:19.919Z,97217.16
2023-03-14T17:58:50.613Z,97218.95
2023-03-14T18:01:22.356Z,97219.60
2023-03-14T18:03:56.322Z,97222.48
2023-03-14T18:06:30.121Z,97223.27
2023-03-14T18:09:01.130Z,97225.27
2023-03-14T18:11:32.597Z,97225.58
2023-03-14T18:14:07.745Z,97225.83
2023-03-14T18:16:39.164Z,97232.06
2023-03-14T18:19:10.604Z,97236.01
2023-03-14T18:21:41.203Z,97241.36
2023-03-14T18:24:13.599Z,97238.76
2023-03-14T18:26:44.601Z,97241.30
2023-03-14T18:29:16.227Z,97240.05
2023-03-14T18:31:47.507Z,97247.02
2023-03-14T18:34:17.873Z,97249.91
2023-03-14T18:36:48.675Z,97252.88
2023-03-14T18:39:19.447Z,97253.77
2023-03-14T18:41:50.015Z,97257.58
2023-03-14T18:44:21.145Z,97260.45
2023-03-14T18:46:52.341Z,97256.39
2023-03-14T18:49:22.804Z,97257.88
2023-03-14T18:51:53.149Z,97257.15
2023-03-14T18:54:23.551Z,97260.02
2023-03-14T18:56:54.154Z,97258.94
2023-03-14T18:59:24.448Z,97259.84
2023-03-14T19:01:54.848Z,97261.50
2023-03-14T19:04:25.262Z,97258.96
2023-03-14T19:06:58.444Z,97254.58
2023-03-14T19:09:29.281Z,97252.58
2023-03-14T19:11:59.555Z,97252.75
2023-03-14T19:14:29.961Z,97248.98
2023-03-14T19:17:00.706Z,97243.34
2023-03-14T19:19:31.658Z,97240.18
2023-03-14T19:22:02.343Z,97238.89
2023-03-14T19:24:34.181Z,97237.70
2023-03-14T19:27:04.939Z,97238.90
2023-03-14T19:29:39.129Z,97239.00
2023-03-14T19:32:09.657Z,97240.36
2023-03-14T19:34:40.106Z,97238.83
2023-03-14T19:37:10.260Z,97236.75
2023-03-14T19:39:41.039Z,97237.50
2023-03-14T19:42:11.551Z,97240.91
2023-03-14T19:44:42.247Z,97244.50
2023-03-14T19:47:12.471Z,97245.23
2023-03-14T19:49:43.095Z,97250.70
2023-03-14T19:52:13.958Z,97246.98
2023-03-14T19:54:44.386Z,97244.69
2023-03-14T19:57:14.760Z,97247.84
2023-03-14T19:59:45.659Z,97247.88
2023-03-14T20:02:16.426Z,97248.96
2023-03-14T20:04:46.733Z,97248.18
2023-03-14T20:07:17.430Z,97248.30
2023-03-14T20:09:48.083Z,97248.92
2023-03-14T20:12:18.264Z,97249.73
2023-03-14T20:14:48.448Z,97248.56
2023-03-14T20:17:18.685Z,97250.15
2023-03-14T20:19:49.605Z,97249.98
2023-03-14T20:22:20.181Z,97254.09
2023-03-14T20:24:52.114Z,97251.71
2023-03-14T20:27:22.477Z,97248.67
2023-03-14T20:29:57.676Z,97247.03
2023-03-14T20:32:28.185Z,97248.92
2023-03-14T20:34:58.619Z,97244.63
2023-03-14T20:37:29.041Z,97240.72
2023-03-14T20:39:59.468Z,97241.14
2023-03-14T20:42:30.020Z,97240.23
2023-03-14T20:45:00.285Z,97238.64
2023-03-14T20:47:30.601Z,97238.86
2023-03-14T20:50:01.355Z,97237.94
2023-03-14T20:52:31.803Z,97239.34
2023-03-14T20:55:02.374Z,97240.16
2023-03-14T20:57:32.466Z,97236.56
2023-03-14T21:00:06.964Z,97228.63
2023-03-14T21:05:26.012Z,97227.48
2023-03-14T21:07:56.243Z,97229.91
2023-03-14T21:10:26.436Z,97224.48
2023-03-14T21:12:56.613Z,97222.17
2023-03-14T21:15:28.504Z,97220.74
2023-03-14T21:18:04.800Z,97218.95
2023-03-14T21:20:36.501Z,97220.80
2023-03-14T21:23:07.369Z,97214.37
2023-03-14T21:25:38.242Z,97217.27
2023-03-14T21:28:08.435Z,97217.73
2023-03-14T21:30:38.967Z,97218.51
2023-03-14T21:33:09.238Z,97218.06
2023-03-14T21:35:39.538Z,97219.38
2023-03-14T21:38:09.732Z,97222.42
2023-03-14T21:40:39.872Z,97220.50
2023-03-14T21:43:10.043Z,97221.57
2023-03-14T21:45:40.810Z,97221.70
2023-03-14T21:48:11.134Z,97217.83
2023-03-14T21:50:41.367Z,97217.31
2023-03-14T21:53:11.914Z,97217.02
2023-03-14T21:55:43.777Z,97216.64
2023-03-14T21:58:14.957Z,97216.78
2023-03-14T22:00:48.852Z,97217.34
2023-03-14T22:03:19.643Z,97216.19
2023-03-14T22:05:50.058Z,97215.55
2023-03-14T22:08:22.446Z,97215.98
2023-03-14T22:10:53.994Z,97218.09
2023-03-14T22:13:25.042Z,97219.25
2023-03-14T22:15:55.199Z,97219.61
2023-03-14T22:18:25.814Z,97221.55
2023-03-14T22:20:56.136Z,97225.60
2023-03-14T22:23:26.345Z,97223.24
2023-03-14T22:25:56.449Z,97225.23
2023-03-14T22:28:26.705Z,97224.36
2023-03-14T22:30:56.621Z,97228.28
2023-03-14T22:33:27.013Z,97226.65
2023-03-14T22:35:57.103Z,97228.98
2023-03-14T22:38:27.666Z,97229.59
2023-03-14T22:41:02.660Z,97231.03
2023-03-14T22:43:32.879Z,97226.19
2023-03-14T22:46:03.620Z,97226.51
2023-03-14T22:48:34.055Z,97223.43
2023-03-14T22:51:08.854Z,97221.77
2023-03-14T22:53:39.406Z,97223.59
2023-03-14T22:56:09.952Z,97220.31
2023-03-14T22:58:40.378Z,97217.05
2023-03-14T23:01:10.772Z,97218.38
2023-03-14T23:03:40.948Z,97219.91
2023-03-14T23:06:11.387Z,97222.58
2023-03-14T23:08:41.823Z,97220.60
2023-03-14T23:11:17.004Z,97218.08
2023-03-14T23:13:49.500Z,97215.48
2023-03-14T23:16:25.194Z,97213.60
2023-03-14T23:19:00.903Z,97210.23
2023-03-14T23:21:31.288Z,97208.38
2023-03-14T23:24:05.344Z,97206.54
2023-03-14T23:26:35.897Z,97203.71
2023-03-14T23:29:06.179Z,97200.69
2023-03-14T23:31:36.346Z,97201.33
2023-03-14T23:34:06.463Z,97201.23
2023-03-14T23:36:37.209Z,97195.55
2023-03-14T23:39:08.184Z,97192.70
2023-03-14T23:41:38.811Z,97187.23
2023-03-14T23:44:12.786Z,97185.17
2023-03-14T23:46:42.882Z,97186.79
2023-03-14T23:49:13.246Z,97186.90
2023-03-14T23:51:44.077Z,97188.77
2023-03-14T23:54:14.844Z,97188.34
2023-03-14T23:56:45.025Z,97188.04
2023-03-14T23:59:15.056Z,97182.92
